sensor_id;sensor_type;location;lat;lon;timestamp;P1;durP1;ratioP1;P2;durP2;ratioP2
39322;SDS011;25036;53.638;10.134;2023-05-14T00:00:18;4.83;;;3.80;;
39322;SDS011;25036;53.638;10.134;2023-05-14T00:01:18;4.30;;;3.90;;
39322;SDS011;25036;53.638;10.134;2023-05-14T00:02:19;5.40;;;3.80;;
39322;SDS011;25036;53.638;10.134;2023-05-14T00:03:19;7.10;;;4.10;;
39322;SDS011;25036;53.638;10.134;2023-05-14T00:04:19;5.23;;;3.87;;
39322;SDS011;25036;53.638;10.134;2023-05-14T00:05:19;4.28;;;3.88;;
39322;SDS011;25036;53.638;10.134;2023-05-14T00:06:19;4.43;;;3.97;;
39322;SDS011;25036;53.638;10.134;2023-05-14T00:07:20;5.22;;;3.85;;
39322;SDS011;25036;53.638;10.134;2023-05-14T00:08:20;4.63;;;3.43;;
39322;SDS011;25036;53.638;10.134;2023-05-14T00:09:20;4.33;;;3.83;;
39322;SDS011;25036;53.638;10.134;2023-05-14T00:10:20;6.13;;;4.07;;
39322;SDS011;25036;53.638;10.134;2023-05-14T00:11:21;5.40;;;4.03;;
39322;SDS011;25036;53.638;10.134;2023-05-14T00:12:21;6.75;;;4.10;;
39322;SDS011;25036;53.638;10.134;2023-05-14T00:13:21;4.80;;;3.67;;
39322;SDS011;25036;53.638;10.134;2023-05-14T00:14:22;4.93;;;3.97;;
39322;SDS011;25036;53.638;10.134;2023-05-14T00:15:22;4.50;;;4.10;;
39322;SDS011;25036;53.638;10.134;2023-05-14T00:16:22;5.97;;;4.23;;
39322;SDS011;25036;53.638;10.134;2023-05-14T00:17:22;7.43;;;3.90;;
39322;SDS011;25036;53.638;10.134;2023-05-14T00:18:22;5.77;;;4.10;;
39322;SDS011;25036;53.638;10.134;2023-05-14T00:19:22;5.13;;;4.57;;
39322;SDS011;25036;53.638;10.134;2023-05-14T00:20:22;4.57;;;4.17;;
39322;SDS011;25036;53.638;10.134;2023-05-14T00:21:23;4.78;;;3.90;;
39322;SDS011;25036;53.638;10.134;2023-05-14T00:22:23;6.13;;;4.17;;
39322;SDS011;25036;53.638;10.134;2023-05-14T00:23:23;5.30;;;4.50;;
39322;SDS011;25036;53.638;10.134;2023-05-14T00:24:23;5.05;;;4.32;;
39322;SDS011;25036;53.638;10.134;2023-05-14T00:25:23;5.93;;;4.63;;
39322;SDS011;25036;53.638;10.134;2023-05-14T00:26:23;5.13;;;4.60;;
39322;SDS011;25036;53.638;10.134;2023-05-14T00:27:24;5.82;;;5.22;;
39322;SDS011;25036;53.638;10.134;2023-05-14T00:28:24;6.93;;;4.35;;
39322;SDS011;25036;53.638;10.134;2023-05-14T00:29:25;6.22;;;5.20;;
39322;SDS011;25036;53.638;10.134;2023-05-14T00:30:25;5.53;;;5.00;;
39322;SDS011;25036;53.638;10.134;2023-05-14T00:31:25;6.03;;;5.00;;
39322;SDS011;25036;53.638;10.134;2023-05-14T00:32:25;5.37;;;4.87;;
39322;SDS011;25036;53.638;10.134;2023-05-14T00:33:25;7.97;;;4.70;;
39322;SDS011;25036;53.638;10.134;2023-05-14T00:34:25;4.93;;;4.53;;
39322;SDS011;25036;53.638;10.134;2023-05-14T00:35:26;6.93;;;5.27;;
39322;SDS011;25036;53.638;10.134;2023-05-14T00:36:26;4.77;;;4.27;;
39322;SDS011;25036;53.638;10.134;2023-05-14T00:37:26;8.50;;;5.17;;
39322;SDS011;25036;53.638;10.134;2023-05-14T00:38:26;5.47;;;4.97;;
39322;SDS011;25036;53.638;10.134;2023-05-14T00:39:27;7.22;;;5.13;;
39322;SDS011;25036;53.638;10.134;2023-05-14T00:40:27;12.87;;;6.13;;
39322;SDS011;25036;53.638;10.134;2023-05-14T00:41:28;5.03;;;4.53;;
39322;SDS011;25036;53.638;10.134;2023-05-14T00:42:28;6.47;;;5.27;;
39322;SDS011;25036;53.638;10.134;2023-05-14T00:43:28;5.57;;;5.07;;
39322;SDS011;25036;53.638;10.134;2023-05-14T00:44:28;7.20;;;5.10;;
39322;SDS011;25036;53.638;10.134;2023-05-14T00:45:28;7.47;;;5.40;;
39322;SDS011;25036;53.638;10.134;2023-05-14T00:46:28;6.00;;;5.40;;
39322;SDS011;25036;53.638;10.134;2023-05-14T00:47:28;6.13;;;5.40;;
39322;SDS011;25036;53.638;10.134;2023-05-14T00:48:29;7.43;;;5.17;;
39322;SDS011;25036;53.638;10.134;2023-05-14T00:49:29;8.77;;;5.03;;
39322;SDS011;25036;53.638;10.134;2023-05-14T00:50:29;6.18;;;5.55;;
39322;SDS011;25036;53.638;10.134;2023-05-14T00:51:29;8.57;;;5.90;;
39322;SDS011;25036;53.638;10.134;2023-05-14T00:52:30;6.10;;;5.50;;
39322;SDS011;25036;53.638;10.134;2023-05-14T00:53:30;6.40;;;5.65;;
39322;SDS011;25036;53.638;10.134;2023-05-14T00:54:30;6.07;;;5.10;;
39322;SDS011;25036;53.638;10.134;2023-05-14T00:55:30;6.70;;;5.00;;
39322;SDS011;25036;53.638;10.134;2023-05-14T00:56:30;6.38;;;5.35;;
39322;SDS011;25036;53.638;10.134;2023-05-14T00:57:31;5.63;;;4.93;;
39322;SDS011;25036;53.638;10.134;2023-05-14T00:58:31;6.05;;;4.95;;
39322;SDS011;25036;53.638;10.134;2023-05-14T00:59:31;5.20;;;4.70;;
39322;SDS011;25036;53.638;10.134;2023-05-14T01:00:32;5.53;;;4.60;;
39322;SDS011;25036;53.638;10.134;2023-05-14T01:01:32;5.57;;;3.97;;
39322;SDS011;25036;53.638;10.134;2023-05-14T01:02:32;4.90;;;4.13;;
39322;SDS011;25036;53.638;10.134;2023-05-14T01:03:32;4.77;;;4.23;;
39322;SDS011;25036;53.638;10.134;2023-05-14T01:04:33;4.30;;;3.90;;
39322;SDS011;25036;53.638;10.134;2023-05-14T01:05:55;4.95;;;4.20;;
39322;SDS011;25036;53.638;10.134;2023-05-14T01:07:07;4.53;;;4.13;;
39322;SDS011;25036;53.638;10.134;2023-05-14T01:08:11;4.20;;;3.80;;
39322;SDS011;25036;53.638;10.134;2023-05-14T01:09:17;5.43;;;4.03;;
39322;SDS011;25036;53.638;10.134;2023-05-14T01:10:20;4.60;;;4.20;;
39322;SDS011;25036;53.638;10.134;2023-05-14T01:11:58;5.43;;;3.80;;
39322;SDS011;25036;53.638;10.134;2023-05-14T01:15:06;5.50;;;3.92;;
39322;SDS011;25036;53.638;10.134;2023-05-14T01:16:11;4.57;;;3.60;;
39322;SDS011;25036;53.638;10.134;2023-05-14T01:17:11;3.97;;;3.58;;
39322;SDS011;25036;53.638;10.134;2023-05-14T01:18:13;5.68;;;4.05;;
39322;SDS011;25036;53.638;10.134;2023-05-14T01:19:48;8.80;;;4.22;;
39322;SDS011;25036;53.638;10.134;2023-05-14T01:20:42;4.32;;;3.92;;
39322;SDS011;25036;53.638;10.134;2023-05-14T01:21:43;3.97;;;3.65;;
39322;SDS011;25036;53.638;10.134;2023-05-14T01:22:43;5.27;;;3.90;;
39322;SDS011;25036;53.638;10.134;2023-05-14T01:23:43;5.50;;;3.92;;
39322;SDS011;25036;53.638;10.134;2023-05-14T01:24:43;3.90;;;3.40;;
39322;SDS011;25036;53.638;10.134;2023-05-14T01:25:44;6.73;;;3.87;;
39322;SDS011;25036;53.638;10.134;2023-05-14T01:26:44;4.03;;;3.43;;
39322;SDS011;25036;53.638;10.134;2023-05-14T01:28:05;4.43;;;3.75;;
39322;SDS011;25036;53.638;10.134;2023-05-14T01:29:18;3.72;;;3.42;;
39322;SDS011;25036;53.638;10.134;2023-05-14T01:31:30;4.93;;;3.72;;
39322;SDS011;25036;53.638;10.134;2023-05-14T01:32:31;3.42;;;3.13;;
39322;SDS011;25036;53.638;10.134;2023-05-14T01:33:32;4.57;;;3.58;;
39322;SDS011;25036;53.638;10.134;2023-05-14T01:34:33;4.43;;;3.83;;
39322;SDS011;25036;53.638;10.134;2023-05-14T01:35:34;6.60;;;3.72;;
39322;SDS011;25036;53.638;10.134;2023-05-14T01:36:34;3.72;;;3.42;;
39322;SDS011;25036;53.638;10.134;2023-05-14T01:37:34;4.07;;;3.65;;
39322;SDS011;25036;53.638;10.134;2023-05-14T01:38:35;4.70;;;3.33;;
39322;SDS011;25036;53.638;10.134;2023-05-14T01:39:36;3.58;;;3.28;;
39322;SDS011;25036;53.638;10.134;2023-05-14T01:40:36;8.40;;;3.72;;
39322;SDS011;25036;53.638;10.134;2023-05-14T01:41:37;4.93;;;3.70;;
39322;SDS011;25036;53.638;10.134;2023-05-14T01:42:38;5.68;;;3.33;;
39322;SDS011;25036;53.638;10.134;2023-05-14T01:43:38;4.95;;;3.70;;
39322;SDS011;25036;53.638;10.134;2023-05-14T01:44:39;4.70;;;3.67;;
39322;SDS011;25036;53.638;10.134;2023-05-14T01:45:39;4.90;;;3.50;;
39322;SDS011;25036;53.638;10.134;2023-05-14T01:46:40;4.63;;;3.38;;
39322;SDS011;25036;53.638;10.134;2023-05-14T01:47:40;3.93;;;3.23;;
39322;SDS011;25036;53.638;10.134;2023-05-14T01:48:40;4.13;;;3.60;;
39322;SDS011;25036;53.638;10.134;2023-05-14T01:49:40;4.33;;;3.50;;
39322;SDS011;25036;53.638;10.134;2023-05-14T01:50:40;3.60;;;3.30;;
39322;SDS011;25036;53.638;10.134;2023-05-14T01:51:41;4.47;;;3.20;;
39322;SDS011;25036;53.638;10.134;2023-05-14T01:52:41;5.93;;;3.50;;
39322;SDS011;25036;53.638;10.134;2023-05-14T01:53:41;3.53;;;3.22;;
39322;SDS011;25036;53.638;10.134;2023-05-14T01:54:41;3.37;;;3.07;;
39322;SDS011;25036;53.638;10.134;2023-05-14T01:55:41;3.83;;;3.33;;
39322;SDS011;25036;53.638;10.134;2023-05-14T01:56:41;7.20;;;3.20;;
39322;SDS011;25036;53.638;10.134;2023-05-14T01:57:41;6.87;;;3.60;;
39322;SDS011;25036;53.638;10.134;2023-05-14T01:58:42;4.00;;;3.08;;
39322;SDS011;25036;53.638;10.134;2023-05-14T01:59:42;4.40;;;3.70;;
39322;SDS011;25036;53.638;10.134;2023-05-14T02:00:42;4.33;;;3.47;;
39322;SDS011;25036;53.638;10.134;2023-05-14T02:01:42;3.50;;;3.20;;
39322;SDS011;25036;53.638;10.134;2023-05-14T02:02:43;3.85;;;3.55;;
39322;SDS011;25036;53.638;10.134;2023-05-14T02:03:43;4.13;;;3.20;;
39322;SDS011;25036;53.638;10.134;2023-05-14T02:04:43;5.20;;;3.25;;
39322;SDS011;25036;53.638;10.134;2023-05-14T02:05:43;5.30;;;3.47;;
39322;SDS011;25036;53.638;10.134;2023-05-14T02:06:43;4.20;;;3.23;;
39322;SDS011;25036;53.638;10.134;2023-05-14T02:07:43;5.10;;;3.50;;
39322;SDS011;25036;53.638;10.134;2023-05-14T02:08:44;5.25;;;3.80;;
39322;SDS011;25036;53.638;10.134;2023-05-14T02:09:44;6.20;;;3.60;;
39322;SDS011;25036;53.638;10.134;2023-05-14T02:10:44;6.03;;;3.25;;
39322;SDS011;25036;53.638;10.134;2023-05-14T02:11:44;5.05;;;3.40;;
39322;SDS011;25036;53.638;10.134;2023-05-14T02:12:45;4.10;;;3.20;;
39322;SDS011;25036;53.638;10.134;2023-05-14T02:13:45;5.40;;;3.50;;
39322;SDS011;25036;53.638;10.134;2023-05-14T02:14:45;3.90;;;3.40;;
39322;SDS011;25036;53.638;10.134;2023-05-14T02:15:45;5.65;;;3.30;;
39322;SDS011;25036;53.638;10.134;2023-05-14T02:16:46;5.30;;;3.15;;
39322;SDS011;25036;53.638;10.134;2023-05-14T02:17:46;4.83;;;3.47;;
39322;SDS011;25036;53.638;10.134;2023-05-14T02:18:46;3.97;;;3.27;;
39322;SDS011;25036;53.638;10.134;2023-05-14T02:19:46;5.13;;;3.50;;
39322;SDS011;25036;53.638;10.134;2023-05-14T02:20:46;3.92;;;3.40;;
39322;SDS011;25036;53.638;10.134;2023-05-14T02:21:47;5.50;;;3.80;;
39322;SDS011;25036;53.638;10.134;2023-05-14T02:22:47;5.25;;;3.50;;
39322;SDS011;25036;53.638;10.134;2023-05-14T02:23:47;3.75;;;3.13;;
39322;SDS011;25036;53.638;10.134;2023-05-14T02:24:48;4.50;;;3.60;;
39322;SDS011;25036;53.638;10.134;2023-05-14T02:25:51;4.70;;;3.35;;
39322;SDS011;25036;53.638;10.134;2023-05-14T02:26:51;4.45;;;3.42;;
39322;SDS011;25036;53.638;10.134;2023-05-14T02:27:51;5.22;;;3.58;;
39322;SDS011;25036;53.638;10.134;2023-05-14T02:28:51;6.30;;;3.50;;
39322;SDS011;25036;53.638;10.134;2023-05-14T02:29:51;4.83;;;3.40;;
39322;SDS011;25036;53.638;10.134;2023-05-14T02:30:56;6.07;;;3.90;;
39322;SDS011;25036;53.638;10.134;2023-05-14T02:31:57;4.43;;;3.65;;
39322;SDS011;25036;53.638;10.134;2023-05-14T02:32:57;4.10;;;3.67;;
39322;SDS011;25036;53.638;10.134;2023-05-14T02:33:57;6.70;;;3.80;;
39322;SDS011;25036;53.638;10.134;2023-05-14T02:34:57;5.63;;;3.57;;
39322;SDS011;25036;53.638;10.134;2023-05-14T02:35:57;4.87;;;3.30;;
39322;SDS011;25036;53.638;10.134;2023-05-14T02:36:57;4.47;;;3.53;;
39322;SDS011;25036;53.638;10.134;2023-05-14T02:37:57;4.17;;;3.63;;
39322;SDS011;25036;53.638;10.134;2023-05-14T02:38:58;5.00;;;3.58;;
39322;SDS011;25036;53.638;10.134;2023-05-14T02:40:00;4.00;;;3.60;;
39322;SDS011;25036;53.638;10.134;2023-05-14T02:41:00;5.63;;;3.83;;
39322;SDS011;25036;53.638;10.134;2023-05-14T02:42:00;5.50;;;3.42;;
39322;SDS011;25036;53.638;10.134;2023-05-14T02:43:00;3.80;;;3.33;;
39322;SDS011;25036;53.638;10.134;2023-05-14T02:44:00;3.77;;;3.20;;
39322;SDS011;25036;53.638;10.134;2023-05-14T02:45:00;4.27;;;3.67;;
39322;SDS011;25036;53.638;10.134;2023-05-14T02:46:00;3.87;;;3.50;;
39322;SDS011;25036;53.638;10.134;2023-05-14T02:47:01;5.63;;;3.75;;
39322;SDS011;25036;53.638;10.134;2023-05-14T02:48:01;4.43;;;3.50;;
39322;SDS011;25036;53.638;10.134;2023-05-14T02:49:01;5.57;;;3.50;;
39322;SDS011;25036;53.638;10.134;2023-05-14T02:50:02;3.78;;;3.45;;
39322;SDS011;25036;53.638;10.134;2023-05-14T02:51:03;4.50;;;3.83;;
39322;SDS011;25036;53.638;10.134;2023-05-14T02:52:04;3.97;;;3.40;;
39322;SDS011;25036;53.638;10.134;2023-05-14T02:53:04;5.10;;;3.53;;
39322;SDS011;25036;53.638;10.134;2023-05-14T02:54:04;4.20;;;3.40;;
39322;SDS011;25036;53.638;10.134;2023-05-14T02:55:05;5.10;;;3.65;;
39322;SDS011;25036;53.638;10.134;2023-05-14T02:56:05;4.50;;;3.88;;
39322;SDS011;25036;53.638;10.134;2023-05-14T02:57:05;3.95;;;3.47;;
39322;SDS011;25036;53.638;10.134;2023-05-14T02:58:05;6.30;;;3.87;;
39322;SDS011;25036;53.638;10.134;2023-05-14T02:59:05;4.87;;;3.60;;
39322;SDS011;25036;53.638;10.134;2023-05-14T03:00:06;6.38;;;3.80;;
39322;SDS011;25036;53.638;10.134;2023-05-14T03:01:06;4.78;;;3.70;;
39322;SDS011;25036;53.638;10.134;2023-05-14T03:02:06;4.13;;;3.60;;
39322;SDS011;25036;53.638;10.134;2023-05-14T03:03:06;5.80;;;3.67;;
39322;SDS011;25036;53.638;10.134;2023-05-14T03:04:06;5.00;;;3.77;;
39322;SDS011;25036;53.638;10.134;2023-05-14T03:05:07;5.80;;;4.03;;
39322;SDS011;25036;53.638;10.134;2023-05-14T03:06:07;4.25;;;3.60;;
39322;SDS011;25036;53.638;10.134;2023-05-14T03:07:07;3.53;;;3.23;;
39322;SDS011;25036;53.638;10.134;2023-05-14T03:08:07;4.10;;;3.63;;
39322;SDS011;25036;53.638;10.134;2023-05-14T03:09:07;4.60;;;3.30;;
39322;SDS011;25036;53.638;10.134;2023-05-14T03:10:07;5.30;;;3.97;;
39322;SDS011;25036;53.638;10.134;2023-05-14T03:11:08;4.00;;;3.55;;
39322;SDS011;25036;53.638;10.134;2023-05-14T03:12:08;5.90;;;3.23;;
39322;SDS011;25036;53.638;10.134;2023-05-14T03:13:08;4.50;;;3.63;;
39322;SDS011;25036;53.638;10.134;2023-05-14T03:14:08;3.85;;;3.35;;
39322;SDS011;25036;53.638;10.134;2023-05-14T03:15:08;5.13;;;3.63;;
39322;SDS011;25036;53.638;10.134;2023-05-14T03:16:09;4.00;;;3.60;;
39322;SDS011;25036;53.638;10.134;2023-05-14T03:17:09;4.68;;;3.67;;
39322;SDS011;25036;53.638;10.134;2023-05-14T03:18:09;3.33;;;3.03;;
39322;SDS011;25036;53.638;10.134;2023-05-14T03:19:09;6.23;;;3.83;;
39322;SDS011;25036;53.638;10.134;2023-05-14T03:20:10;3.40;;;3.10;;
39322;SDS011;25036;53.638;10.134;2023-05-14T03:21:11;5.13;;;3.30;;
39322;SDS011;25036;53.638;10.134;2023-05-14T03:22:11;5.60;;;3.63;;
39322;SDS011;25036;53.638;10.134;2023-05-14T03:23:11;4.07;;;3.10;;
39322;SDS011;25036;53.638;10.134;2023-05-14T03:24:11;4.03;;;3.53;;
39322;SDS011;25036;53.638;10.134;2023-05-14T03:25:11;6.63;;;3.53;;
39322;SDS011;25036;53.638;10.134;2023-05-14T03:26:12;3.73;;;3.43;;
39322;SDS011;25036;53.638;10.134;2023-05-14T03:27:12;4.37;;;3.70;;
39322;SDS011;25036;53.638;10.134;2023-05-14T03:28:12;3.90;;;3.50;;
39322;SDS011;25036;53.638;10.134;2023-05-14T03:29:12;5.00;;;3.85;;
39322;SDS011;25036;53.638;10.134;2023-05-14T03:30:12;4.20;;;3.70;;
39322;SDS011;25036;53.638;10.134;2023-05-14T03:31:12;3.60;;;3.30;;
39322;SDS011;25036;53.638;10.134;2023-05-14T03:32:13;3.50;;;3.20;;
39322;SDS011;25036;53.638;10.134;2023-05-14T03:33:13;4.57;;;3.28;;
39322;SDS011;25036;53.638;10.134;2023-05-14T03:34:13;6.30;;;3.63;;
39322;SDS011;25036;53.638;10.134;2023-05-14T03:35:13;4.17;;;3.40;;
39322;SDS011;25036;53.638;10.134;2023-05-14T03:36:13;7.68;;;3.80;;
39322;SDS011;25036;53.638;10.134;2023-05-14T03:37:14;4.83;;;4.43;;
39322;SDS011;25036;53.638;10.134;2023-05-14T03:38:14;5.80;;;3.60;;
39322;SDS011;25036;53.638;10.134;2023-05-14T03:39:14;4.68;;;3.72;;
39322;SDS011;25036;53.638;10.134;2023-05-14T03:40:18;6.03;;;3.60;;
39322;SDS011;25036;53.638;10.134;2023-05-14T03:41:18;5.40;;;3.60;;
39322;SDS011;25036;53.638;10.134;2023-05-14T03:42:19;4.80;;;3.80;;
39322;SDS011;25036;53.638;10.134;2023-05-14T03:43:19;3.85;;;3.55;;
39322;SDS011;25036;53.638;10.134;2023-05-14T03:44:19;4.20;;;3.63;;
39322;SDS011;25036;53.638;10.134;2023-05-14T03:45:19;4.27;;;3.90;;
39322;SDS011;25036;53.638;10.134;2023-05-14T03:46:20;8.63;;;3.65;;
39322;SDS011;25036;53.638;10.134;2023-05-14T03:47:20;5.60;;;3.60;;
39322;SDS011;25036;53.638;10.134;2023-05-14T03:48:20;4.17;;;3.30;;
39322;SDS011;25036;53.638;10.134;2023-05-14T03:49:20;3.97;;;3.57;;
39322;SDS011;25036;53.638;10.134;2023-05-14T03:50:20;3.93;;;3.50;;
39322;SDS011;25036;53.638;10.134;2023-05-14T03:51:20;4.20;;;3.63;;
39322;SDS011;25036;53.638;10.134;2023-05-14T03:52:20;3.80;;;3.40;;
39322;SDS011;25036;53.638;10.134;2023-05-14T03:53:21;4.07;;;3.60;;
39322;SDS011;25036;53.638;10.134;2023-05-14T03:54:21;4.15;;;3.65;;
39322;SDS011;25036;53.638;10.134;2023-05-14T03:55:21;3.67;;;3.30;;
39322;SDS011;25036;53.638;10.134;2023-05-14T03:56:21;4.93;;;3.55;;
39322;SDS011;25036;53.638;10.134;2023-05-14T03:57:21;4.70;;;3.90;;
39322;SDS011;25036;53.638;10.134;2023-05-14T03:58:21;4.07;;;3.67;;
39322;SDS011;25036;53.638;10.134;2023-05-14T03:59:22;4.23;;;3.40;;
39322;SDS011;25036;53.638;10.134;2023-05-14T04:00:22;3.93;;;3.30;;
39322;SDS011;25036;53.638;10.134;2023-05-14T04:01:22;4.33;;;3.93;;
39322;SDS011;25036;53.638;10.134;2023-05-14T04:02:22;4.55;;;3.78;;
39322;SDS011;25036;53.638;10.134;2023-05-14T04:03:22;6.07;;;3.57;;
39322;SDS011;25036;53.638;10.134;2023-05-14T04:04:22;4.60;;;3.60;;
39322;SDS011;25036;53.638;10.134;2023-05-14T04:05:22;3.90;;;3.50;;
39322;SDS011;25036;53.638;10.134;2023-05-14T04:06:23;4.17;;;3.60;;
39322;SDS011;25036;53.638;10.134;2023-05-14T04:07:23;5.07;;;3.63;;
39322;SDS011;25036;53.638;10.134;2023-05-14T04:08:23;3.23;;;3.03;;
39322;SDS011;25036;53.638;10.134;2023-05-14T04:09:23;3.70;;;3.40;;
39322;SDS011;25036;53.638;10.134;2023-05-14T04:10:23;4.10;;;3.77;;
39322;SDS011;25036;53.638;10.134;2023-05-14T04:11:23;3.67;;;3.37;;
39322;SDS011;25036;53.638;10.134;2023-05-14T04:12:24;7.87;;;3.57;;
39322;SDS011;25036;53.638;10.134;2023-05-14T04:13:25;4.05;;;3.63;;
39322;SDS011;25036;53.638;10.134;2023-05-14T04:14:25;4.10;;;3.70;;
39322;SDS011;25036;53.638;10.134;2023-05-14T04:15:25;6.93;;;3.53;;
39322;SDS011;25036;53.638;10.134;2023-05-14T04:16:26;3.80;;;3.50;;
39322;SDS011;25036;53.638;10.134;2023-05-14T04:17:26;5.10;;;3.63;;
39322;SDS011;25036;53.638;10.134;2023-05-14T04:18:26;6.67;;;3.73;;
39322;SDS011;25036;53.638;10.134;2023-05-14T04:19:26;6.13;;;3.50;;
39322;SDS011;25036;53.638;10.134;2023-05-14T04:20:26;4.50;;;3.67;;
39322;SDS011;25036;53.638;10.134;2023-05-14T04:21:26;4.75;;;3.80;;
39322;SDS011;25036;53.638;10.134;2023-05-14T04:22:26;4.05;;;3.45;;
39322;SDS011;25036;53.638;10.134;2023-05-14T04:23:27;4.20;;;3.80;;
39322;SDS011;25036;53.638;10.134;2023-05-14T04:24:27;5.22;;;4.30;;
39322;SDS011;25036;53.638;10.134;2023-05-14T04:25:27;4.50;;;4.10;;
39322;SDS011;25036;53.638;10.134;2023-05-14T04:26:27;6.87;;;3.67;;
39322;SDS011;25036;53.638;10.134;2023-05-14T04:27:27;3.77;;;3.43;;
39322;SDS011;25036;53.638;10.134;2023-05-14T04:28:28;5.38;;;4.00;;
39322;SDS011;25036;53.638;10.134;2023-05-14T04:29:28;5.77;;;3.97;;
39322;SDS011;25036;53.638;10.134;2023-05-14T04:30:28;4.38;;;3.60;;
39322;SDS011;25036;53.638;10.134;2023-05-14T04:31:28;5.88;;;3.50;;
39322;SDS011;25036;53.638;10.134;2023-05-14T04:32:29;4.53;;;3.58;;
39322;SDS011;25036;53.638;10.134;2023-05-14T04:33:29;3.43;;;3.00;;
39322;SDS011;25036;53.638;10.134;2023-05-14T04:34:29;4.10;;;3.70;;
39322;SDS011;25036;53.638;10.134;2023-05-14T04:35:29;4.25;;;3.50;;
39322;SDS011;25036;53.638;10.134;2023-05-14T04:36:29;6.93;;;3.70;;
39322;SDS011;25036;53.638;10.134;2023-05-14T04:37:30;4.72;;;3.90;;
39322;SDS011;25036;53.638;10.134;2023-05-14T04:38:30;4.28;;;3.63;;
39322;SDS011;25036;53.638;10.134;2023-05-14T04:39:31;4.72;;;3.83;;
39322;SDS011;25036;53.638;10.134;2023-05-14T04:40:31;4.65;;;3.90;;
39322;SDS011;25036;53.638;10.134;2023-05-14T04:41:31;4.83;;;4.03;;
39322;SDS011;25036;53.638;10.134;2023-05-14T04:42:31;4.03;;;3.63;;
39322;SDS011;25036;53.638;10.134;2023-05-14T04:43:31;4.07;;;3.63;;
39322;SDS011;25036;53.638;10.134;2023-05-14T04:44:32;4.87;;;3.73;;
39322;SDS011;25036;53.638;10.134;2023-05-14T04:45:33;4.32;;;3.80;;
39322;SDS011;25036;53.638;10.134;2023-05-14T04:46:33;4.80;;;4.00;;
39322;SDS011;25036;53.638;10.134;2023-05-14T04:47:33;5.03;;;3.73;;
39322;SDS011;25036;53.638;10.134;2023-05-14T04:48:33;4.20;;;3.80;;
39322;SDS011;25036;53.638;10.134;2023-05-14T04:49:33;4.32;;;3.38;;
39322;SDS011;25036;53.638;10.134;2023-05-14T04:50:33;4.40;;;4.00;;
39322;SDS011;25036;53.638;10.134;2023-05-14T04:51:34;4.35;;;3.95;;
39322;SDS011;25036;53.638;10.134;2023-05-14T04:52:34;5.35;;;4.03;;
39322;SDS011;25036;53.638;10.134;2023-05-14T04:53:34;4.80;;;4.07;;
39322;SDS011;25036;53.638;10.134;2023-05-14T04:54:34;6.77;;;4.13;;
39322;SDS011;25036;53.638;10.134;2023-05-14T04:55:35;5.13;;;4.27;;
39322;SDS011;25036;53.638;10.134;2023-05-14T04:56:35;5.75;;;3.72;;
39322;SDS011;25036;53.638;10.134;2023-05-14T04:57:35;4.60;;;4.20;;
39322;SDS011;25036;53.638;10.134;2023-05-14T04:58:35;4.87;;;4.07;;
39322;SDS011;25036;53.638;10.134;2023-05-14T04:59:35;5.23;;;3.63;;
39322;SDS011;25036;53.638;10.134;2023-05-14T05:00:35;4.70;;;3.87;;
39322;SDS011;25036;53.638;10.134;2023-05-14T05:01:36;6.53;;;4.10;;
39322;SDS011;25036;53.638;10.134;2023-05-14T05:02:36;4.50;;;4.10;;
39322;SDS011;25036;53.638;10.134;2023-05-14T05:03:36;4.87;;;3.53;;
39322;SDS011;25036;53.638;10.134;2023-05-14T05:04:37;6.43;;;4.27;;
39322;SDS011;25036;53.638;10.134;2023-05-14T05:05:37;4.80;;;4.22;;
39322;SDS011;25036;53.638;10.134;2023-05-14T05:06:37;4.43;;;4.00;;
39322;SDS011;25036;53.638;10.134;2023-05-14T05:07:37;4.87;;;3.97;;
39322;SDS011;25036;53.638;10.134;2023-05-14T05:08:37;4.30;;;3.93;;
39322;SDS011;25036;53.638;10.134;2023-05-14T05:09:37;4.23;;;3.80;;
39322;SDS011;25036;53.638;10.134;2023-05-14T05:10:38;5.25;;;3.85;;
39322;SDS011;25036;53.638;10.134;2023-05-14T05:11:38;4.33;;;3.80;;
39322;SDS011;25036;53.638;10.134;2023-05-14T05:12:38;5.63;;;3.80;;
39322;SDS011;25036;53.638;10.134;2023-05-14T05:13:38;6.38;;;4.35;;
39322;SDS011;25036;53.638;10.134;2023-05-14T05:14:38;6.13;;;3.88;;
39322;SDS011;25036;53.638;10.134;2023-05-14T05:15:38;4.80;;;3.80;;
39322;SDS011;25036;53.638;10.134;2023-05-14T05:16:39;4.40;;;4.00;;
39322;SDS011;25036;53.638;10.134;2023-05-14T05:17:39;4.33;;;3.93;;
39322;SDS011;25036;53.638;10.134;2023-05-14T05:18:39;4.50;;;4.10;;
39322;SDS011;25036;53.638;10.134;2023-05-14T05:19:39;7.20;;;3.75;;
39322;SDS011;25036;53.638;10.134;2023-05-14T05:20:39;4.97;;;3.70;;
39322;SDS011;25036;53.638;10.134;2023-05-14T05:21:40;6.70;;;4.25;;
39322;SDS011;25036;53.638;10.134;2023-05-14T05:22:40;6.22;;;3.78;;
39322;SDS011;25036;53.638;10.134;2023-05-14T05:23:40;7.95;;;4.10;;
39322;SDS011;25036;53.638;10.134;2023-05-14T05:24:40;5.37;;;3.73;;
39322;SDS011;25036;53.638;10.134;2023-05-14T05:25:40;5.03;;;3.97;;
39322;SDS011;25036;53.638;10.134;2023-05-14T05:26:41;5.80;;;3.83;;
39322;SDS011;25036;53.638;10.134;2023-05-14T05:27:41;4.88;;;3.50;;
39322;SDS011;25036;53.638;10.134;2023-05-14T05:28:41;4.27;;;3.63;;
39322;SDS011;25036;53.638;10.134;2023-05-14T05:29:42;4.70;;;4.15;;
39322;SDS011;25036;53.638;10.134;2023-05-14T05:30:42;4.90;;;4.05;;
39322;SDS011;25036;53.638;10.134;2023-05-14T05:31:44;4.65;;;3.80;;
39322;SDS011;25036;53.638;10.134;2023-05-14T05:32:44;5.03;;;3.70;;
39322;SDS011;25036;53.638;10.134;2023-05-14T05:33:44;4.50;;;4.10;;
39322;SDS011;25036;53.638;10.134;2023-05-14T05:34:44;5.10;;;3.77;;
39322;SDS011;25036;53.638;10.134;2023-05-14T05:35:44;5.30;;;3.90;;
39322;SDS011;25036;53.638;10.134;2023-05-14T05:36:45;7.18;;;4.20;;
39322;SDS011;25036;53.638;10.134;2023-05-14T05:37:45;4.37;;;3.90;;
39322;SDS011;25036;53.638;10.134;2023-05-14T05:38:45;4.47;;;3.77;;
39322;SDS011;25036;53.638;10.134;2023-05-14T05:39:45;5.20;;;4.23;;
39322;SDS011;25036;53.638;10.134;2023-05-14T05:40:47;5.57;;;4.03;;
39322;SDS011;25036;53.638;10.134;2023-05-14T05:41:47;6.32;;;3.63;;
39322;SDS011;25036;53.638;10.134;2023-05-14T05:42:47;4.23;;;3.50;;
39322;SDS011;25036;53.638;10.134;2023-05-14T05:43:47;4.20;;;3.77;;
39322;SDS011;25036;53.638;10.134;2023-05-14T05:44:47;5.50;;;4.10;;
39322;SDS011;25036;53.638;10.134;2023-05-14T05:45:47;4.77;;;3.77;;
39322;SDS011;25036;53.638;10.134;2023-05-14T05:46:48;6.70;;;3.60;;
39322;SDS011;25036;53.638;10.134;2023-05-14T05:47:48;4.05;;;3.30;;
39322;SDS011;25036;53.638;10.134;2023-05-14T05:48:48;4.00;;;3.63;;
39322;SDS011;25036;53.638;10.134;2023-05-14T05:49:48;5.53;;;3.80;;
39322;SDS011;25036;53.638;10.134;2023-05-14T05:50:48;5.78;;;3.75;;
39322;SDS011;25036;53.638;10.134;2023-05-14T05:51:49;3.67;;;3.40;;
39322;SDS011;25036;53.638;10.134;2023-05-14T05:52:49;4.10;;;3.70;;
39322;SDS011;25036;53.638;10.134;2023-05-14T05:53:49;4.80;;;4.00;;
39322;SDS011;25036;53.638;10.134;2023-05-14T05:54:50;6.00;;;3.90;;
39322;SDS011;25036;53.638;10.134;2023-05-14T05:55:50;4.05;;;3.58;;
39322;SDS011;25036;53.638;10.134;2023-05-14T05:56:50;5.40;;;3.42;;
39322;SDS011;25036;53.638;10.134;2023-05-14T05:57:50;8.38;;;3.95;;
39322;SDS011;25036;53.638;10.134;2023-05-14T05:58:51;3.95;;;3.63;;
39322;SDS011;25036;53.638;10.134;2023-05-14T05:59:51;5.93;;;3.87;;
39322;SDS011;25036;53.638;10.134;2023-05-14T06:00:51;6.83;;;4.10;;
39322;SDS011;25036;53.638;10.134;2023-05-14T06:01:52;5.65;;;3.95;;
39322;SDS011;25036;53.638;10.134;2023-05-14T06:02:52;4.70;;;3.97;;